46U

Alpine Airport

Alpine, Wyoming, USA
METAR K46U 172115Z AUTO 31010KT 10SM FEW050 02/M03 A3016 RMK A01
Observed Flight Rules
Nov-17 @ 21:15 UTC (23 minutes ago) Visual Flight Rules
Wind Visibility Clouds
310° at 10 knots 10 miles
  • Few at 5,000' AGL
Temperatures Readings
Current 2°C / 36°F
Dewpoint -3°C / 27°F
Humidity 70%
Altimeter 30.16" Hg
Pressure 1021 hPa
Elevation 1717
METAR K46U 172115Z AUTO 31010KT 10SM FEW050 02/M03 A3016 RMK A01
Observed Flight Rules
Nov-17 @ 21:15 UTC
(23 minutes ago)
VFR
Wind Visibility
310° at 10 knots 10 miles
Clouds
  • Few at 5,000' AGL
Temperature Dewpoint
2°C / 36°F -3°C / 27°F
Humidity Altimeter Pressure
70% 30.16" Hg 1021 hPa